sensor_id;sensor_type;location;lat;lon;timestamp;P1;P2;P0
21358;PMS7003;13506;50.852;20.632;2022-10-03T00:01:37;11.25;8.00;3.25
21358;PMS7003;13506;50.852;20.632;2022-10-03T00:04:36;13.20;9.40;3.80
21358;PMS7003;13506;50.852;20.632;2022-10-03T00:07:16;10.50;9.00;5.75
21358;PMS7003;13506;50.852;20.632;2022-10-03T00:09:58;11.80;10.00;4.60
21358;PMS7003;13506;50.852;20.632;2022-10-03T00:12:45;13.00;12.40;6.40
21358;PMS7003;13506;50.852;20.632;2022-10-03T00:15:26;11.50;9.50;4.25
21358;PMS7003;13506;50.852;20.632;2022-10-03T00:18:02;10.75;10.25;4.25
21358;PMS7003;13506;50.852;20.632;2022-10-03T00:20:45;11.00;11.00;4.50
21358;PMS7003;13506;50.852;20.632;2022-10-03T00:23:32;10.50;9.50;5.75
21358;PMS7003;13506;50.852;20.632;2022-10-03T00:26:07;8.50;7.75;4.00
21358;PMS7003;13506;50.852;20.632;2022-10-03T00:28:58;12.25;10.50;5.50
21358;PMS7003;13506;50.852;20.632;2022-10-03T00:31:49;10.00;9.25;5.00
21358;PMS7003;13506;50.852;20.632;2022-10-03T00:34:30;12.75;9.50;5.25
21358;PMS7003;13506;50.852;20.632;2022-10-03T00:37:14;13.25;10.00;5.25
21358;PMS7003;13506;50.852;20.632;2022-10-03T00:40:14;12.20;11.20;6.20
21358;PMS7003;13506;50.852;20.632;2022-10-03T00:46:15;13.75;10.25;6.00
21358;PMS7003;13506;50.852;20.632;2022-10-03T00:49:26;12.00;12.00;7.00
21358;PMS7003;13506;50.852;20.632;2022-10-03T00:52:09;13.00;12.25;6.75
21358;PMS7003;13506;50.852;20.632;2022-10-03T00:54:53;13.25;12.50;7.00
21358;PMS7003;13506;50.852;20.632;2022-10-03T00:57:40;13.50;12.25;5.75
21358;PMS7003;13506;50.852;20.632;2022-10-03T01:00:26;14.00;11.00;6.80
21358;PMS7003;13506;50.852;20.632;2022-10-03T01:03:08;11.00;10.25;6.75
21358;PMS7003;13506;50.852;20.632;2022-10-03T01:06:10;13.25;12.00;6.00
21358;PMS7003;13506;50.852;20.632;2022-10-03T01:08:56;12.25;10.25;5.75
21358;PMS7003;13506;50.852;20.632;2022-10-03T01:11:40;12.00;10.50;6.00
21358;PMS7003;13506;50.852;20.632;2022-10-03T01:14:29;12.00;11.25;6.75
21358;PMS7003;13506;50.852;20.632;2022-10-03T01:17:11;12.00;10.25;6.25
21358;PMS7003;13506;50.852;20.632;2022-10-03T01:20:02;9.75;7.25;3.00
21358;PMS7003;13506;50.852;20.632;2022-10-03T01:25:50;11.75;10.00;6.50
21358;PMS7003;13506;50.852;20.632;2022-10-03T01:28:38;9.00;9.00;4.00
21358;PMS7003;13506;50.852;20.632;2022-10-03T01:31:33;10.50;10.00;5.75
21358;PMS7003;13506;50.852;20.632;2022-10-03T01:34:10;11.00;10.00;4.25
21358;PMS7003;13506;50.852;20.632;2022-10-03T01:36:50;12.00;10.50;4.75
21358;PMS7003;13506;50.852;20.632;2022-10-03T01:39:26;11.00;9.00;4.00
21358;PMS7003;13506;50.852;20.632;2022-10-03T01:41:58;11.50;11.50;5.75
21358;PMS7003;13506;50.852;20.632;2022-10-03T01:44:37;8.75;8.00;4.00
21358;PMS7003;13506;50.852;20.632;2022-10-03T01:47:19;10.75;10.75;4.25
21358;PMS7003;13506;50.852;20.632;2022-10-03T01:49:54;7.50;7.50;3.00
21358;PMS7003;13506;50.852;20.632;2022-10-03T01:52:32;10.75;9.25;4.25
21358;PMS7003;13506;50.852;20.632;2022-10-03T01:55:08;9.75;8.00;3.50
21358;PMS7003;13506;50.852;20.632;2022-10-03T01:57:45;9.25;9.25;5.75
21358;PMS7003;13506;50.852;20.632;2022-10-03T02:00:27;8.75;8.75;4.00
21358;PMS7003;13506;50.852;20.632;2022-10-03T02:03:03;10.25;8.00;4.00
21358;PMS7003;13506;50.852;20.632;2022-10-03T02:05:38;8.50;8.25;5.75
21358;PMS7003;13506;50.852;20.632;2022-10-03T02:08:21;9.00;8.00;4.00
21358;PMS7003;13506;50.852;20.632;2022-10-03T02:11:00;8.75;8.25;4.00
21358;PMS7003;13506;50.852;20.632;2022-10-03T02:13:37;9.25;9.25;4.25
21358;PMS7003;13506;50.852;20.632;2022-10-03T02:16:13;8.75;8.75;4.00
21358;PMS7003;13506;50.852;20.632;2022-10-03T02:18:57;9.50;8.75;4.25
21358;PMS7003;13506;50.852;20.632;2022-10-03T02:21:32;10.00;9.25;4.25
21358;PMS7003;13506;50.852;20.632;2022-10-03T02:24:17;11.50;8.50;5.25
21358;PMS7003;13506;50.852;20.632;2022-10-03T02:27:12;7.25;7.25;3.25
21358;PMS7003;13506;50.852;20.632;2022-10-03T02:30:12;12.25;9.25;6.00
21358;PMS7003;13506;50.852;20.632;2022-10-03T02:35:49;12.00;11.00;5.50
21358;PMS7003;13506;50.852;20.632;2022-10-03T02:38:57;13.00;9.75;4.25
21358;PMS7003;13506;50.852;20.632;2022-10-03T02:41:50;11.50;10.75;6.00
21358;PMS7003;13506;50.852;20.632;2022-10-03T02:44:52;9.25;9.25;6.25
21358;PMS7003;13506;50.852;20.632;2022-10-03T02:47:47;10.75;9.00;4.00
21358;PMS7003;13506;50.852;20.632;2022-10-03T02:50:56;8.75;8.00;4.25
21358;PMS7003;13506;50.852;20.632;2022-10-03T02:54:09;8.50;8.00;3.75
21358;PMS7003;13506;50.852;20.632;2022-10-03T02:57:12;11.00;8.20;5.20
21358;PMS7003;13506;50.852;20.632;2022-10-03T03:00:05;9.60;7.40;3.20
21358;PMS7003;13506;50.852;20.632;2022-10-03T03:12:27;7.00;7.00;3.00
21358;PMS7003;13506;50.852;20.632;2022-10-03T03:18:29;8.00;8.00;2.75
21358;PMS7003;13506;50.852;20.632;2022-10-03T03:21:09;7.25;7.25;3.00
21358;PMS7003;13506;50.852;20.632;2022-10-03T03:23:52;9.50;8.50;3.50
21358;PMS7003;13506;50.852;20.632;2022-10-03T03:26:49;6.75;6.00;3.00
21358;PMS7003;13506;50.852;20.632;2022-10-03T03:29:43;7.00;6.25;2.00
21358;PMS7003;13506;50.852;20.632;2022-10-03T03:32:22;7.25;6.50;2.25
21358;PMS7003;13506;50.852;20.632;2022-10-03T03:35:05;10.00;9.00;4.00
21358;PMS7003;13506;50.852;20.632;2022-10-03T03:37:43;6.00;5.75;2.00
21358;PMS7003;13506;50.852;20.632;2022-10-03T03:40:24;6.75;6.50;2.25
21358;PMS7003;13506;50.852;20.632;2022-10-03T03:43:11;6.75;6.75;3.00
21358;PMS7003;13506;50.852;20.632;2022-10-03T03:46:07;7.00;6.25;2.75
21358;PMS7003;13506;50.852;20.632;2022-10-03T03:48:55;7.75;6.75;2.25
21358;PMS7003;13506;50.852;20.632;2022-10-03T03:51:31;10.50;7.00;3.00
21358;PMS7003;13506;50.852;20.632;2022-10-03T03:54:13;6.50;6.50;3.00
21358;PMS7003;13506;50.852;20.632;2022-10-03T03:57:18;6.00;6.00;2.75
21358;PMS7003;13506;50.852;20.632;2022-10-03T04:00:16;6.50;6.50;3.00
21358;PMS7003;13506;50.852;20.632;2022-10-03T04:06:03;7.60;7.60;3.00
21358;PMS7003;13506;50.852;20.632;2022-10-03T04:08:51;6.75;6.25;2.50
21358;PMS7003;13506;50.852;20.632;2022-10-03T04:11:41;7.00;7.00;3.00
21358;PMS7003;13506;50.852;20.632;2022-10-03T04:14:32;4.25;4.25;2.00
21358;PMS7003;13506;50.852;20.632;2022-10-03T04:17:32;6.00;4.00;2.00
21358;PMS7003;13506;50.852;20.632;2022-10-03T04:20:37;6.50;6.50;2.25
21358;PMS7003;13506;50.852;20.632;2022-10-03T04:23:41;6.00;6.00;3.00
21358;PMS7003;13506;50.852;20.632;2022-10-03T04:26:31;6.25;6.25;2.50
21358;PMS7003;13506;50.852;20.632;2022-10-03T04:29:19;6.75;6.00;2.50
21358;PMS7003;13506;50.852;20.632;2022-10-03T04:32:20;7.00;6.00;2.75
21358;PMS7003;13506;50.852;20.632;2022-10-03T04:35:23;7.25;7.00;3.00
21358;PMS7003;13506;50.852;20.632;2022-10-03T04:38:17;8.00;8.00;4.00
21358;PMS7003;13506;50.852;20.632;2022-10-03T04:40:53;7.40;7.40;4.00
21358;PMS7003;13506;50.852;20.632;2022-10-03T04:43:31;7.25;5.75;3.00
21358;PMS7003;13506;50.852;20.632;2022-10-03T04:48:55;8.00;8.00;3.00
21358;PMS7003;13506;50.852;20.632;2022-10-03T04:51:32;8.00;7.50;3.25
21358;PMS7003;13506;50.852;20.632;2022-10-03T04:54:23;6.50;5.50;2.50
21358;PMS7003;13506;50.852;20.632;2022-10-03T04:57:00;7.25;7.25;3.00
21358;PMS7003;13506;50.852;20.632;2022-10-03T04:59:39;8.00;7.00;3.00
21358;PMS7003;13506;50.852;20.632;2022-10-03T05:02:17;9.50;6.25;2.75
21358;PMS7003;13506;50.852;20.632;2022-10-03T05:05:03;6.25;6.25;3.00
21358;PMS7003;13506;50.852;20.632;2022-10-03T05:07:49;7.00;7.00;2.25
21358;PMS7003;13506;50.852;20.632;2022-10-03T05:10:33;6.25;6.25;2.00
21358;PMS7003;13506;50.852;20.632;2022-10-03T05:13:14;7.00;7.00;2.00
21358;PMS7003;13506;50.852;20.632;2022-10-03T05:15:55;6.25;6.25;3.00
21358;PMS7003;13506;50.852;20.632;2022-10-03T05:18:31;7.75;7.00;2.50
21358;PMS7003;13506;50.852;20.632;2022-10-03T05:21:08;8.25;6.00;2.25
21358;PMS7003;13506;50.852;20.632;2022-10-03T05:23:44;7.50;6.25;2.50
21358;PMS7003;13506;50.852;20.632;2022-10-03T05:26:23;9.25;5.50;2.75
21358;PMS7003;13506;50.852;20.632;2022-10-03T05:29:00;7.25;6.25;3.00
21358;PMS7003;13506;50.852;20.632;2022-10-03T05:31:43;6.25;5.75;3.00
21358;PMS7003;13506;50.852;20.632;2022-10-03T05:34:19;7.75;6.50;2.25
21358;PMS7003;13506;50.852;20.632;2022-10-03T05:36:58;7.25;6.00;2.00
21358;PMS7003;13506;50.852;20.632;2022-10-03T05:39:44;7.25;7.25;3.25
21358;PMS7003;13506;50.852;20.632;2022-10-03T05:42:31;9.25;7.50;3.50
21358;PMS7003;13506;50.852;20.632;2022-10-03T05:45:18;5.75;5.75;2.00
21358;PMS7003;13506;50.852;20.632;2022-10-03T05:47:59;8.00;7.25;2.25
21358;PMS7003;13506;50.852;20.632;2022-10-03T05:53:42;5.00;5.00;2.25
21358;PMS7003;13506;50.852;20.632;2022-10-03T05:56:37;9.50;7.25;2.50
21358;PMS7003;13506;50.852;20.632;2022-10-03T05:59:33;7.50;7.50;2.50
21358;PMS7003;13506;50.852;20.632;2022-10-03T06:02:28;8.50;8.00;3.00
21358;PMS7003;13506;50.852;20.632;2022-10-03T06:05:23;8.00;7.00;3.00
21358;PMS7003;13506;50.852;20.632;2022-10-03T06:10:54;11.25;7.50;3.00
21358;PMS7003;13506;50.852;20.632;2022-10-03T06:13:36;6.25;6.25;3.00
21358;PMS7003;13506;50.852;20.632;2022-10-03T06:16:25;5.75;5.75;2.50
21358;PMS7003;13506;50.852;20.632;2022-10-03T06:19:05;7.00;4.50;2.25
21358;PMS7003;13506;50.852;20.632;2022-10-03T06:21:58;7.25;7.25;3.00
21358;PMS7003;13506;50.852;20.632;2022-10-03T06:25:15;5.75;5.75;3.00
21358;PMS7003;13506;50.852;20.632;2022-10-03T06:28:34;8.00;7.00;2.75
21358;PMS7003;13506;50.852;20.632;2022-10-03T06:31:57;7.50;7.50;3.75
21358;PMS7003;13506;50.852;20.632;2022-10-03T06:34:44;7.00;5.75;3.00
21358;PMS7003;13506;50.852;20.632;2022-10-03T06:41:11;6.25;5.50;2.50
21358;PMS7003;13506;50.852;20.632;2022-10-03T06:44:01;7.00;7.00;2.00
21358;PMS7003;13506;50.852;20.632;2022-10-03T06:46:58;9.50;8.75;3.75
21358;PMS7003;13506;50.852;20.632;2022-10-03T06:50:07;11.00;8.25;4.00
21358;PMS7003;13506;50.852;20.632;2022-10-03T06:52:52;11.00;8.00;3.25
21358;PMS7003;13506;50.852;20.632;2022-10-03T06:55:41;8.00;7.00;4.50
21358;PMS7003;13506;50.852;20.632;2022-10-03T06:58:26;7.50;7.25;3.25
21358;PMS7003;13506;50.852;20.632;2022-10-03T07:01:23;10.25;7.25;3.75
21358;PMS7003;13506;50.852;20.632;2022-10-03T07:11:04;8.00;8.00;4.00
21358;PMS7003;13506;50.852;20.632;2022-10-03T07:17:28;7.25;7.25;4.00
21358;PMS7003;13506;50.852;20.632;2022-10-03T07:23:19;8.25;8.25;3.00
21358;PMS7003;13506;50.852;20.632;2022-10-03T07:26:20;8.00;8.00;3.00
21358;PMS7003;13506;50.852;20.632;2022-10-03T07:29:22;8.00;8.00;4.00
21358;PMS7003;13506;50.852;20.632;2022-10-03T07:32:25;7.50;7.50;3.75
21358;PMS7003;13506;50.852;20.632;2022-10-03T07:35:32;9.25;8.50;4.75
21358;PMS7003;13506;50.852;20.632;2022-10-03T07:45:02;4.50;4.50;2.00
21358;PMS7003;13506;50.852;20.632;2022-10-03T07:51:13;10.25;8.00;3.25
21358;PMS7003;13506;50.852;20.632;2022-10-03T07:57:09;7.00;7.00;3.00
21358;PMS7003;13506;50.852;20.632;2022-10-03T08:00:00;6.25;6.25;2.50
21358;PMS7003;13506;50.852;20.632;2022-10-03T08:05:56;6.00;6.00;2.75
21358;PMS7003;13506;50.852;20.632;2022-10-03T08:08:47;8.75;8.50;3.75
21358;PMS7003;13506;50.852;20.632;2022-10-03T08:12:13;7.25;7.25;3.00
21358;PMS7003;13506;50.852;20.632;2022-10-03T08:14:57;6.00;6.00;2.25
21358;PMS7003;13506;50.852;20.632;2022-10-03T08:20:32;8.00;7.25;2.75
21358;PMS7003;13506;50.852;20.632;2022-10-03T08:23:20;7.50;7.50;3.00
21358;PMS7003;13506;50.852;20.632;2022-10-03T08:26:46;8.25;8.25;3.00
21358;PMS7003;13506;50.852;20.632;2022-10-03T08:29:39;9.75;8.00;3.25
21358;PMS7003;13506;50.852;20.632;2022-10-03T08:42:03;8.50;7.25;3.25
21358;PMS7003;13506;50.852;20.632;2022-10-03T08:51:51;8.00;7.00;3.25
21358;PMS7003;13506;50.852;20.632;2022-10-03T08:54:45;8.75;8.00;4.00
21358;PMS7003;13506;50.852;20.632;2022-10-03T08:57:37;8.25;6.75;2.50
21358;PMS7003;13506;50.852;20.632;2022-10-03T09:00:26;7.00;7.00;3.00
21358;PMS7003;13506;50.852;20.632;2022-10-03T09:19:30;8.25;8.00;3.25
21358;PMS7003;13506;50.852;20.632;2022-10-03T09:22:23;6.50;6.50;3.25
21358;PMS7003;13506;50.852;20.632;2022-10-03T09:25:14;7.00;7.00;4.00
21358;PMS7003;13506;50.852;20.632;2022-10-03T09:27:57;8.75;7.25;3.00
21358;PMS7003;13506;50.852;20.632;2022-10-03T09:30:59;29.40;24.60;13.80
21358;PMS7003;13506;50.852;20.632;2022-10-03T09:33:49;11.50;8.75;4.75
21358;PMS7003;13506;50.852;20.632;2022-10-03T09:46:28;5.00;5.00;1.75
21358;PMS7003;13506;50.852;20.632;2022-10-03T09:53:06;8.00;7.00;3.50
21358;PMS7003;13506;50.852;20.632;2022-10-03T09:59:38;8.25;7.50;2.75
21358;PMS7003;13506;50.852;20.632;2022-10-03T10:12:16;9.25;8.00;4.00
21358;PMS7003;13506;50.852;20.632;2022-10-03T10:18:32;9.25;9.00;4.00
21358;PMS7003;13506;50.852;20.632;2022-10-03T10:22:01;7.50;7.50;4.00
21358;PMS7003;13506;50.852;20.632;2022-10-03T10:28:10;6.00;6.00;2.50
21358;PMS7003;13506;50.852;20.632;2022-10-03T10:34:35;8.00;6.40;2.20
21358;PMS7003;13506;50.852;20.632;2022-10-03T10:40:42;8.50;7.75;2.75
21358;PMS7003;13506;50.852;20.632;2022-10-03T10:44:08;7.25;5.75;3.00
21358;PMS7003;13506;50.852;20.632;2022-10-03T10:56:59;5.00;5.00;2.00
21358;PMS7003;13506;50.852;20.632;2022-10-03T11:19:26;5.75;5.75;3.00
21358;PMS7003;13506;50.852;20.632;2022-10-03T11:25:51;6.00;6.00;2.25
21358;PMS7003;13506;50.852;20.632;2022-10-03T11:32:49;6.25;4.25;2.25
21358;PMS7003;13506;50.852;20.632;2022-10-03T11:39:13;7.50;6.00;2.00
21358;PMS7003;13506;50.852;20.632;2022-10-03T11:41:55;7.00;6.75;2.50
21358;PMS7003;13506;50.852;20.632;2022-10-03T11:44:32;7.00;7.00;3.00
21358;PMS7003;13506;50.852;20.632;2022-10-03T11:47:14;10.50;8.00;3.00
21358;PMS7003;13506;50.852;20.632;2022-10-03T11:53:02;8.50;8.00;3.00
21358;PMS7003;13506;50.852;20.632;2022-10-03T11:55:44;8.00;8.00;3.75
21358;PMS7003;13506;50.852;20.632;2022-10-03T11:58:23;7.40;6.60;3.20
21358;PMS7003;13506;50.852;20.632;2022-10-03T12:01:03;7.40;7.40;4.40
21358;PMS7003;13506;50.852;20.632;2022-10-03T12:03:53;15.25;11.75;5.75
21358;PMS7003;13506;50.852;20.632;2022-10-03T12:06:37;16.40;14.80;8.00
21358;PMS7003;13506;50.852;20.632;2022-10-03T12:09:36;6.60;6.60;3.20
21358;PMS7003;13506;50.852;20.632;2022-10-03T12:12:23;9.75;8.25;4.00
21358;PMS7003;13506;50.852;20.632;2022-10-03T12:15:03;10.50;9.00;4.00
21358;PMS7003;13506;50.852;20.632;2022-10-03T12:17:45;8.00;8.00;4.00
21358;PMS7003;13506;50.852;20.632;2022-10-03T12:20:22;8.00;7.00;3.75
21358;PMS7003;13506;50.852;20.632;2022-10-03T12:22:58;10.75;7.25;3.25
21358;PMS7003;13506;50.852;20.632;2022-10-03T12:25:40;6.75;6.75;3.00
21358;PMS7003;13506;50.852;20.632;2022-10-03T12:28:19;7.00;7.00;5.00
21358;PMS7003;13506;50.852;20.632;2022-10-03T12:30:54;10.75;10.00;4.25
21358;PMS7003;13506;50.852;20.632;2022-10-03T12:33:36;7.50;7.50;3.75
21358;PMS7003;13506;50.852;20.632;2022-10-03T12:36:16;6.50;6.50;3.00
21358;PMS7003;13506;50.852;20.632;2022-10-03T12:38:54;7.75;7.50;3.00
21358;PMS7003;13506;50.852;20.632;2022-10-03T12:41:43;7.25;7.25;3.25
21358;PMS7003;13506;50.852;20.632;2022-10-03T12:44:36;8.25;7.75;4.00
21358;PMS7003;13506;50.852;20.632;2022-10-03T12:47:20;8.25;8.25;3.75
21358;PMS7003;13506;50.852;20.632;2022-10-03T12:49:57;7.00;7.00;3.00
21358;PMS7003;13506;50.852;20.632;2022-10-03T12:52:37;8.00;7.00;2.00
21358;PMS7003;13506;50.852;20.632;2022-10-03T12:55:18;8.00;6.25;3.00
21358;PMS7003;13506;50.852;20.632;2022-10-03T12:57:53;6.75;6.50;2.00
21358;PMS7003;13506;50.852;20.632;2022-10-03T13:00:32;8.75;8.00;4.00
21358;PMS7003;13506;50.852;20.632;2022-10-03T13:03:14;8.00;8.00;4.00
21358;PMS7003;13506;50.852;20.632;2022-10-03T13:05:54;10.00;8.00;3.00
21358;PMS7003;13506;50.852;20.632;2022-10-03T13:08:53;8.50;7.00;3.00
21358;PMS7003;13506;50.852;20.632;2022-10-03T13:11:38;7.75;6.00;2.25
21358;PMS7003;13506;50.852;20.632;2022-10-03T13:14:22;6.00;6.00;2.25
21358;PMS7003;13506;50.852;20.632;2022-10-03T13:17:03;7.25;6.50;3.00
21358;PMS7003;13506;50.852;20.632;2022-10-03T13:19:49;8.00;8.00;4.00
21358;PMS7003;13506;50.852;20.632;2022-10-03T13:22:28;7.00;7.00;3.00
21358;PMS7003;13506;50.852;20.632;2022-10-03T13:25:08;7.75;7.75;3.00
21358;PMS7003;13506;50.852;20.632;2022-10-03T13:27:43;9.25;7.25;3.75
21358;PMS7003;13506;50.852;20.632;2022-10-03T13:30:18;10.75;8.00;3.00
21358;PMS7003;13506;50.852;20.632;2022-10-03T13:32:49;9.50;8.75;3.00
21358;PMS7003;13506;50.852;20.632;2022-10-03T13:35:26;7.00;6.50;3.00
21358;PMS7003;13506;50.852;20.632;2022-10-03T13:38:37;7.00;7.00;3.00
21358;PMS7003;13506;50.852;20.632;2022-10-03T13:41:31;8.25;6.75;3.00
21358;PMS7003;13506;50.852;20.632;2022-10-03T13:44:28;6.75;6.75;2.50
21358;PMS7003;13506;50.852;20.632;2022-10-03T13:47:07;5.75;5.75;2.00
21358;PMS7003;13506;50.852;20.632;2022-10-03T13:50:12;6.50;6.50;2.00
21358;PMS7003;13506;50.852;20.632;2022-10-03T13:52:49;9.00;9.00;3.00
21358;PMS7003;13506;50.852;20.632;2022-10-03T13:55:27;7.00;7.00;3.00
21358;PMS7003;13506;50.852;20.632;2022-10-03T13:58:13;6.50;6.00;3.00
21358;PMS7003;13506;50.852;20.632;2022-10-03T14:01:13;11.25;9.00;4.00
21358;PMS7003;13506;50.852;20.632;2022-10-03T14:04:10;7.25;7.25;3.25
21358;PMS7003;13506;50.852;20.632;2022-10-03T14:07:14;8.75;7.50;4.00
21358;PMS7003;13506;50.852;20.632;2022-10-03T14:09:56;9.00;8.00;4.00
21358;PMS7003;13506;50.852;20.632;2022-10-03T14:12:51;8.00;7.40;4.20
21358;PMS7003;13506;50.852;20.632;2022-10-03T14:15:40;7.75;7.75;3.00
21358;PMS7003;13506;50.852;20.632;2022-10-03T14:18:20;8.25;8.00;4.00
21358;PMS7003;13506;50.852;20.632;2022-10-03T14:24:29;4.75;4.25;1.25
21358;PMS7003;13506;50.852;20.632;2022-10-03T14:27:15;5.50;4.00;1.75
21358;PMS7003;13506;50.852;20.632;2022-10-03T14:30:03;4.00;4.00;1.50
21358;PMS7003;13506;50.852;20.632;2022-10-03T14:32:38;4.00;4.00;2.00
21358;PMS7003;13506;50.852;20.632;2022-10-03T14:35:28;3.00;3.00;1.00
21358;PMS7003;13506;50.852;20.632;2022-10-03T14:38:07;5.50;5.50;2.75
21358;PMS7003;13506;50.852;20.632;2022-10-03T14:41:12;5.25;5.25;2.75
21358;PMS7003;13506;50.852;20.632;2022-10-03T14:43:48;5.50;5.50;3.00
21358;PMS7003;13506;50.852;20.632;2022-10-03T14:46:22;9.00;7.75;3.00
21358;PMS7003;13506;50.852;20.632;2022-10-03T14:48:54;8.75;8.25;4.00
21358;PMS7003;13506;50.852;20.632;2022-10-03T14:51:25;7.00;7.00;2.25
21358;PMS7003;13506;50.852;20.632;2022-10-03T14:54:01;8.00;8.00;2.75
21358;PMS7003;13506;50.852;20.632;2022-10-03T14:56:33;8.00;7.00;3.00
21358;PMS7003;13506;50.852;20.632;2022-10-03T14:59:11;8.00;6.50;2.00
21358;PMS7003;13506;50.852;20.632;2022-10-03T15:01:47;8.00;5.25;2.50
21358;PMS7003;13506;50.852;20.632;2022-10-03T15:04:26;7.75;6.50;3.00
21358;PMS7003;13506;50.852;20.632;2022-10-03T15:06:58;9.25;8.75;4.00
21358;PMS7003;13506;50.852;20.632;2022-10-03T15:09:28;10.00;7.75;3.75
21358;PMS7003;13506;50.852;20.632;2022-10-03T15:12:02;13.25;10.00;4.75
21358;PMS7003;13506;50.852;20.632;2022-10-03T15:14:38;12.75;9.50;3.75
21358;PMS7003;13506;50.852;20.632;2022-10-03T15:17:17;11.00;9.00;4.50
21358;PMS7003;13506;50.852;20.632;2022-10-03T15:19:49;10.00;9.00;4.75
21358;PMS7003;13506;50.852;20.632;2022-10-03T15:22:31;13.25;12.25;5.50
21358;PMS7003;13506;50.852;20.632;2022-10-03T15:25:02;10.75;10.75;5.00
21358;PMS7003;13506;50.852;20.632;2022-10-03T15:27:34;9.00;9.00;3.75
21358;PMS7003;13506;50.852;20.632;2022-10-03T15:30:16;11.50;10.25;5.50
21358;PMS7003;13506;50.852;20.632;2022-10-03T15:32:47;20.75;14.00;6.75
21358;PMS7003;13506;50.852;20.632;2022-10-03T15:35:17;19.60;17.40;10.00
21358;PMS7003;13506;50.852;20.632;2022-10-03T15:37:49;12.50;9.00;5.50
21358;PMS7003;13506;50.852;20.632;2022-10-03T15:40:21;12.25;11.00;6.00
21358;PMS7003;13506;50.852;20.632;2022-10-03T15:43:02;10.00;8.50;5.50
21358;PMS7003;13506;50.852;20.632;2022-10-03T15:45:34;7.75;7.75;4.50
21358;PMS7003;13506;50.852;20.632;2022-10-03T15:48:08;10.50;7.50;4.00
21358;PMS7003;13506;50.852;20.632;2022-10-03T15:50:41;6.75;6.75;2.50
21358;PMS7003;13506;50.852;20.632;2022-10-03T15:53:19;10.75;8.50;4.00
21358;PMS7003;13506;50.852;20.632;2022-10-03T15:55:49;7.75;7.75;3.50
21358;PMS7003;13506;50.852;20.632;2022-10-03T15:58:23;13.00;12.25;6.25
21358;PMS7003;13506;50.852;20.632;2022-10-03T16:01:00;10.25;8.00;4.00
21358;PMS7003;13506;50.852;20.632;2022-10-03T16:03:38;9.00;8.75;4.25
21358;PMS7003;13506;50.852;20.632;2022-10-03T16:06:12;8.50;7.75;3.00
21358;PMS7003;13506;50.852;20.632;2022-10-03T16:08:51;9.25;8.75;4.25
21358;PMS7003;13506;50.852;20.632;2022-10-03T16:11:24;9.00;9.00;4.00
21358;PMS7003;13506;50.852;20.632;2022-10-03T16:14:06;9.00;8.25;4.25
21358;PMS7003;13506;50.852;20.632;2022-10-03T16:16:43;10.20;10.20;6.40
21358;PMS7003;13506;50.852;20.632;2022-10-03T16:19:22;8.75;8.75;4.00
21358;PMS7003;13506;50.852;20.632;2022-10-03T16:21:55;12.00;9.00;6.00
21358;PMS7003;13506;50.852;20.632;2022-10-03T16:24:39;12.50;8.25;4.50
21358;PMS7003;13506;50.852;20.632;2022-10-03T16:27:13;10.75;8.75;4.75
21358;PMS7003;13506;50.852;20.632;2022-10-03T16:29:46;13.80;10.80;5.20
21358;PMS7003;13506;50.852;20.632;2022-10-03T16:32:21;13.20;11.60;6.20
21358;PMS7003;13506;50.852;20.632;2022-10-03T16:34:52;15.00;12.40;6.80
21358;PMS7003;13506;50.852;20.632;2022-10-03T16:37:26;13.25;12.25;6.50
21358;PMS7003;13506;50.852;20.632;2022-10-03T16:39:57;14.20;13.00;7.60
21358;PMS7003;13506;50.852;20.632;2022-10-03T16:42:34;13.80;13.80;8.00
21358;PMS7003;13506;50.852;20.632;2022-10-03T16:45:06;15.60;15.60;9.20
21358;PMS7003;13506;50.852;20.632;2022-10-03T16:47:51;15.60;13.60;8.20
21358;PMS7003;13506;50.852;20.632;2022-10-03T16:50:40;16.40;14.80;8.60
21358;PMS7003;13506;50.852;20.632;2022-10-03T16:53:14;17.80;14.00;8.00
21358;PMS7003;13506;50.852;20.632;2022-10-03T16:55:44;19.40;17.40;9.40
21358;PMS7003;13506;50.852;20.632;2022-10-03T16:58:17;16.80;15.20;9.40
21358;PMS7003;13506;50.852;20.632;2022-10-03T17:00:50;20.20;17.20;9.20
21358;PMS7003;13506;50.852;20.632;2022-10-03T17:03:24;14.60;14.60;9.20
21358;PMS7003;13506;50.852;20.632;2022-10-03T17:05:57;16.20;15.00;9.40
21358;PMS7003;13506;50.852;20.632;2022-10-03T17:08:26;25.80;25.60;16.80
21358;PMS7003;13506;50.852;20.632;2022-10-03T17:10:58;36.40;33.00;19.40
21358;PMS7003;13506;50.852;20.632;2022-10-03T17:13:36;25.40;20.40;11.00
21358;PMS7003;13506;50.852;20.632;2022-10-03T17:16:11;15.80;13.60;8.40
21358;PMS7003;13506;50.852;20.632;2022-10-03T17:18:44;23.80;21.00;11.20
21358;PMS7003;13506;50.852;20.632;2022-10-03T17:21:33;20.00;17.40;8.40
21358;PMS7003;13506;50.852;20.632;2022-10-03T17:24:08;24.60;19.80;11.60
21358;PMS7003;13506;50.852;20.632;2022-10-03T17:26:40;17.40;17.00;9.40
21358;PMS7003;13506;50.852;20.632;2022-10-03T17:29:11;16.80;15.60;9.60
21358;PMS7003;13506;50.852;20.632;2022-10-03T17:31:44;16.20;13.40;7.80
21358;PMS7003;13506;50.852;20.632;2022-10-03T17:34:18;15.40;14.00;7.80
21358;PMS7003;13506;50.852;20.632;2022-10-03T17:37:11;12.20;11.40;6.80
21358;PMS7003;13506;50.852;20.632;2022-10-03T17:39:52;12.75;9.25;4.00
21358;PMS7003;13506;50.852;20.632;2022-10-03T17:42:31;11.75;11.50;7.25
21358;PMS7003;13506;50.852;20.632;2022-10-03T17:45:11;8.75;8.00;4.00
21358;PMS7003;13506;50.852;20.632;2022-10-03T17:47:55;10.25;9.50;5.00
21358;PMS7003;13506;50.852;20.632;2022-10-03T17:50:29;12.75;9.50;5.75
21358;PMS7003;13506;50.852;20.632;2022-10-03T17:53:02;15.75;11.50;6.75
21358;PMS7003;13506;50.852;20.632;2022-10-03T17:55:33;12.50;10.00;5.25
21358;PMS7003;13506;50.852;20.632;2022-10-03T17:58:10;13.20;9.80;4.40
21358;PMS7003;13506;50.852;20.632;2022-10-03T18:00:53;13.00;10.25;5.00
21358;PMS7003;13506;50.852;20.632;2022-10-03T18:03:32;10.75;10.50;5.00
21358;PMS7003;13506;50.852;20.632;2022-10-03T18:09:06;9.25;8.50;4.25
21358;PMS7003;13506;50.852;20.632;2022-10-03T18:11:44;10.80;10.00;5.60
21358;PMS7003;13506;50.852;20.632;2022-10-03T18:14:18;13.50;11.50;6.00
21358;PMS7003;13506;50.852;20.632;2022-10-03T18:17:01;11.50;11.00;5.50
21358;PMS7003;13506;50.852;20.632;2022-10-03T18:19:38;13.75;13.25;6.75
21358;PMS7003;13506;50.852;20.632;2022-10-03T18:22:22;10.50;10.50;7.00
21358;PMS7003;13506;50.852;20.632;2022-10-03T18:24:56;10.00;8.00;4.75
21358;PMS7003;13506;50.852;20.632;2022-10-03T18:27:53;10.50;10.00;6.00
21358;PMS7003;13506;50.852;20.632;2022-10-03T18:30:40;15.40;12.80;6.20
21358;PMS7003;13506;50.852;20.632;2022-10-03T18:33:15;15.20;13.80;6.80
21358;PMS7003;13506;50.852;20.632;2022-10-03T18:35:46;14.40;14.40;8.60
21358;PMS7003;13506;50.852;20.632;2022-10-03T18:38:18;18.40;17.40;10.20
21358;PMS7003;13506;50.852;20.632;2022-10-03T18:40:49;17.80;16.60;10.00
21358;PMS7003;13506;50.852;20.632;2022-10-03T18:43:24;19.40;16.60;9.80
21358;PMS7003;13506;50.852;20.632;2022-10-03T18:48:52;19.20;16.20;9.00
21358;PMS7003;13506;50.852;20.632;2022-10-03T18:51:26;17.00;15.80;9.00
21358;PMS7003;13506;50.852;20.632;2022-10-03T18:54:00;19.60;17.00;8.80
21358;PMS7003;13506;50.852;20.632;2022-10-03T18:56:39;18.20;17.00;9.80